createdAt,value
2022-11-29T00:01:57.741Z,24.20
2022-11-29T00:04:26.255Z,25.48
2022-11-29T00:06:54.710Z,20.85
2022-11-29T00:09:23.192Z,23.48
2022-11-29T00:12:10.299Z,27.15
2022-11-29T00:14:38.727Z,30.40
2022-11-29T00:17:07.230Z,28.10
2022-11-29T00:19:36.648Z,28.38
2022-11-29T00:22:05.256Z,37.88
2022-11-29T00:24:33.756Z,36.80
2022-11-29T00:27:02.228Z,22.27
2022-11-29T00:29:30.929Z,20.05
2022-11-29T00:31:59.639Z,42.08
2022-11-29T00:34:28.401Z,32.75
2022-11-29T00:36:56.811Z,35.95
2022-11-29T00:39:35.276Z,27.48
2022-11-29T00:42:03.866Z,25.38
2022-11-29T00:44:32.407Z,24.73
2022-11-29T00:47:06.060Z,59.45
2022-11-29T00:49:34.533Z,28.65
2022-11-29T00:52:08.205Z,30.60
2022-11-29T00:54:36.623Z,30.20
2022-11-29T00:57:05.109Z,35.70
2022-11-29T00:59:33.656Z,34.38
2022-11-29T01:02:02.372Z,51.97
2022-11-29T01:04:30.719Z,40.65
2022-11-29T01:06:59.127Z,51.38
2022-11-29T01:09:27.531Z,33.65
2022-11-29T01:11:55.914Z,47.10
2022-11-29T01:14:24.330Z,58.53
2022-11-29T01:16:52.865Z,44.55
2022-11-29T01:19:21.323Z,42.92
2022-11-29T01:21:49.682Z,35.33
2022-11-29T01:24:18.064Z,39.05
2022-11-29T01:26:46.490Z,36.38
2022-11-29T01:29:15.746Z,38.05
2022-11-29T01:31:53.720Z,57.83
2022-11-29T01:34:22.146Z,40.20
2022-11-29T01:36:50.533Z,39.65
2022-11-29T01:39:18.941Z,44.85
2022-11-29T01:41:47.364Z,46.00
2022-11-29T01:44:15.735Z,36.38
2022-11-29T01:46:45.330Z,40.45
2022-11-29T01:49:24.818Z,39.35
2022-11-29T01:52:05.610Z,41.38
2022-11-29T01:54:39.233Z,45.70
2022-11-29T01:57:13.569Z,41.85
2022-11-29T01:59:54.571Z,39.22
2022-11-29T02:02:29.124Z,44.72
2022-11-29T02:05:03.755Z,38.50
2022-11-29T02:07:32.320Z,46.13
2022-11-29T02:10:01.691Z,48.50
2022-11-29T02:12:38.001Z,39.60
2022-11-29T02:15:15.321Z,42.93
2022-11-29T02:17:52.670Z,37.13
2022-11-29T02:20:41.543Z,38.20
2022-11-29T02:23:26.069Z,33.50
2022-11-29T02:26:07.520Z,32.00
2022-11-29T02:28:46.383Z,33.80
2022-11-29T02:31:17.912Z,28.58
2022-11-29T02:33:58.253Z,30.70
2022-11-29T02:36:36.244Z,31.00
2022-11-29T02:39:27.570Z,26.95
2022-11-29T02:42:01.313Z,31.92
2022-11-29T02:44:29.753Z,29.45
2022-11-29T02:47:17.383Z,32.45
2022-11-29T02:49:48.866Z,33.70
2022-11-29T02:52:35.678Z,32.90
2022-11-29T02:55:04.035Z,39.47
2022-11-29T02:57:47.779Z,43.63
2022-11-29T03:00:20.877Z,46.47
2022-11-29T03:02:49.399Z,52.35
2022-11-29T03:05:25.732Z,53.10
2022-11-29T03:11:13.507Z,91.47
2022-11-29T03:14:05.646Z,164.98
2022-11-29T03:16:42.609Z,99.50
2022-11-29T03:19:23.896Z,73.05
2022-11-29T03:22:11.113Z,63.70
2022-11-29T03:24:57.877Z,70.00
2022-11-29T03:30:49.206Z,60.45
2022-11-29T03:33:23.431Z,242.30
2022-11-29T03:36:06.103Z,304.27
2022-11-29T03:38:40.615Z,151.60
2022-11-29T03:41:15.205Z,114.28
2022-11-29T03:44:03.772Z,65.90
2022-11-29T03:46:51.195Z,64.93
2022-11-29T03:49:25.772Z,189.32
2022-11-29T03:52:09.284Z,108.22
2022-11-29T03:54:43.346Z,92.20
2022-11-29T03:57:14.100Z,97.57
2022-11-29T04:00:01.374Z,115.63
2022-11-29T04:03:01.372Z,74.35
2022-11-29T04:05:50.734Z,74.75
2022-11-29T04:08:28.620Z,54.95
2022-11-29T04:11:07.341Z,94.88
2022-11-29T04:13:43.120Z,235.60
2022-11-29T04:16:23.750Z,73.00
2022-11-29T04:18:53.492Z,69.75
2022-11-29T04:21:40.482Z,63.35
2022-11-29T04:24:27.517Z,65.65
2022-11-29T04:27:16.816Z,103.30
2022-11-29T04:29:51.303Z,64.97
2022-11-29T04:32:40.045Z,68.13
2022-11-29T04:35:15.879Z,74.40
2022-11-29T04:37:52.250Z,56.63
2022-11-29T04:40:37.037Z,66.10
2022-11-29T04:43:05.983Z,93.72
2022-11-29T04:45:44.258Z,72.57
2022-11-29T04:48:31.070Z,65.20
2022-11-29T04:54:26.313Z,69.93
2022-11-29T04:57:00.979Z,63.63
2022-11-29T04:59:50.521Z,64.18
2022-11-29T05:02:38.351Z,49.47
2022-11-29T05:05:14.596Z,45.65
2022-11-29T05:07:48.572Z,102.57
2022-11-29T05:10:26.316Z,70.68
2022-11-29T05:16:19.058Z,65.47
2022-11-29T05:18:57.405Z,79.53
2022-11-29T05:21:28.554Z,61.08
2022-11-29T05:24:01.066Z,177.10
2022-11-29T05:26:32.182Z,99.93
2022-11-29T05:31:53.110Z,113.53
2022-11-29T05:34:34.653Z,69.15
2022-11-29T05:37:38.452Z,52.85
2022-11-29T05:40:16.082Z,50.00
2022-11-29T05:46:03.311Z,58.27
2022-11-29T05:48:38.592Z,51.15
2022-11-29T05:51:10.088Z,46.47
2022-11-29T05:53:47.463Z,49.50
2022-11-29T05:56:24.874Z,46.78
2022-11-29T05:58:53.356Z,50.20
2022-11-29T06:01:26.771Z,45.63
2022-11-29T06:04:09.139Z,53.83
2022-11-29T06:06:45.363Z,56.90
2022-11-29T06:09:23.618Z,54.35
2022-11-29T06:12:05.718Z,45.65
2022-11-29T06:14:47.057Z,48.17
2022-11-29T06:17:38.810Z,48.17
2022-11-29T06:20:14.756Z,52.05
2022-11-29T06:23:07.212Z,49.67
2022-11-29T06:25:39.719Z,34.95
2022-11-29T06:28:25.988Z,42.65
2022-11-29T06:31:00.983Z,40.15
2022-11-29T06:33:45.361Z,35.33
2022-11-29T06:36:32.088Z,41.12
2022-11-29T06:39:01.295Z,38.63
2022-11-29T06:41:34.924Z,31.63
2022-11-29T06:44:04.177Z,34.53
2022-11-29T06:46:47.505Z,26.55
2022-11-29T06:49:25.274Z,35.65
2022-11-29T06:52:09.185Z,33.40
2022-11-29T06:54:44.062Z,35.40
2022-11-29T06:57:18.221Z,38.63
2022-11-29T06:59:52.607Z,42.53
2022-11-29T07:02:30.115Z,29.85
2022-11-29T07:05:13.475Z,30.10
2022-11-29T07:07:42.343Z,28.38
2022-11-29T07:10:18.046Z,34.47
2022-11-29T07:12:47.475Z,34.00
2022-11-29T07:15:20.418Z,32.95
2022-11-29T07:17:57.726Z,35.40
2022-11-29T07:20:32.980Z,27.52
2022-11-29T07:23:09.411Z,29.45
2022-11-29T07:25:52.376Z,30.33
2022-11-29T07:28:31.924Z,27.38
2022-11-29T07:31:26.415Z,35.30
2022-11-29T07:34:07.033Z,32.80
2022-11-29T07:39:50.326Z,27.25
2022-11-29T07:42:37.967Z,37.20
2022-11-29T07:47:35.935Z,33.00
2022-11-29T07:50:05.002Z,26.75
2022-11-29T07:52:33.861Z,43.88
2022-11-29T07:55:07.403Z,34.10
2022-11-29T07:57:38.231Z,36.44
2022-11-29T08:00:06.870Z,33.13
2022-11-29T08:02:40.817Z,35.45
2022-11-29T08:05:09.628Z,35.75
2022-11-29T08:07:38.886Z,31.67
2022-11-29T08:10:09.229Z,28.02
2022-11-29T08:12:42.234Z,32.03
2022-11-29T08:15:13.578Z,33.15
2022-11-29T08:17:42.102Z,31.35
2022-11-29T08:20:11.142Z,40.60
2022-11-29T08:22:56.713Z,54.20
2022-11-29T08:25:25.597Z,35.07
2022-11-29T08:27:58.966Z,42.42
2022-11-29T08:30:37.125Z,48.30
2022-11-29T08:33:13.513Z,43.05
2022-11-29T08:35:42.602Z,30.30
2022-11-29T08:38:13.823Z,22.93
2022-11-29T08:40:48.286Z,28.02
2022-11-29T08:43:17.690Z,27.05
2022-11-29T08:45:46.295Z,24.63
2022-11-29T08:48:15.121Z,20.50
2022-11-29T08:50:44.426Z,161.43
2022-11-29T08:53:31.858Z,48.67
2022-11-29T08:56:00.894Z,32.78
2022-11-29T08:58:29.593Z,27.40
2022-11-29T09:00:58.223Z,24.90
2022-11-29T09:03:45.189Z,25.35
